Terminal Aerodrome Forecast
Issued by NWS

Home | Current Version | Previous Version | Text Only | Print | Product List | Glossary On
Versions: 1 2 3 4 5 6 7 8 9 10 11 12 13 14 15 16 17 18 19 20 21 22 23 24 25 26 27 28 29 30
000
FTUS46 KSTO 161151
TAFSAC
TAF
KSAC 161151Z 1612/1712 16011G18KT 6SM -SHRA SCT025 OVC040
     FM161400 17011G20KT 5SM -SHRA BR OVC025
     FM161600 15014G20KT 6SM -SHRA OVC015
     FM162000 15015G26KT 4SM -RA BR OVC025
     FM170200 15030G42KT 6SM -RA BR OVC025 PROB30 1702/1708 2SM
      -TSRA BKN015CB
     FM170800 17020G30KT 2SM -RA BR OVC012=

USA.gov is the U.S. government's official web portal to all federal, state and local government web resources and services.